Current Weather

Gila Bend Af Aux

Gila Bend, Arizona (KGXF)

Report from: Thursday, July 18, 2024 12:55 PM UTC
Current time: Thursday, July 18, 2024 1:53 PM UTC

Nearby weather – Weather history – Daily summaries
Weather forecast

Temperature31.0°C (87.8°F)
Heat index31.2°C (88.1°F)
Dew point16.5°C (61.7°F)
Winds 4 kts (2.1 m/s, 4.6 mph) Southeast (140°)
Visibility9 mi. (14.5 km)
Clouds Few clouds 14,000 ft. (4,267 m)
Few clouds 19,000 ft. (5,791 m)
Altimeter29.88 in.Hg (1012 mB)
PrecipitiationTrace
Precip. events Rain ended 12:05 PM
Relative humidity42 %
Density altitude2,191 ft. (668 m)
Sea-level pressure101.0 kPa (1010 mB, 29.83 in.Hg)
Remarks Fully automated report
System requires maintenance
Automated weather observing station with precipitation discriminator
Lightning observed
Freezing rain sensor not operating
Distant northeast and southeast
Flight conditions Visual Meteorological Conditions
Raw dataKGXF 181255Z AUTO 14004KT 9SM FEW140 FEW190 31/17 A2988 RMK AO2 LTG DSNT NE AND SE RAE05 SLP102 P0000 T03100165 FZRANO $
An error has occurred. This application may no longer respond until reloaded. Reload 🗙